Terminal Aerodrome Forecast
Issued by NWS

Home | Current Version | Previous Version | Graphics & Text | Print | Product List | Glossary On
Versions: 1 2 3 4 5 6 7 8 9 10 11 12 13 14
000
FTUS43 KICT 210520
TAFRSL
TAF
KRSL 210520Z 2106/2206 25006KT P6SM SCT090
     FM211600 27011G17KT P6SM SCT070
     FM220000 VRB05KT P6SM SCT070
     FM220500 04020G30KT P6SM SCT070=

USA.gov is the U.S. government's official web portal to all federal, state and local government web resources and services.